createdAt,value
2022-10-02T00:00:05.781Z,9.77
2022-10-02T00:02:49.013Z,10.23
2022-10-02T00:05:30.466Z,10.67
2022-10-02T00:08:07.370Z,4.93
2022-10-02T00:10:44.699Z,7.50
2022-10-02T00:13:23.912Z,7.87
2022-10-02T00:15:52.305Z,6.83
2022-10-02T00:18:29.014Z,6.60
2022-10-02T00:21:37.630Z,9.60
2022-10-02T00:24:08.012Z,8.97
2022-10-02T00:27:15.378Z,11.33
2022-10-02T00:29:48.726Z,7.90
2022-10-02T00:32:33.640Z,9.83
2022-10-02T00:35:22.410Z,9.20
2022-10-02T00:38:01.563Z,9.20
2022-10-02T00:40:51.482Z,6.03
2022-10-02T00:43:43.351Z,10.20
2022-10-02T00:46:32.398Z,8.37
2022-10-02T00:49:05.022Z,7.63
2022-10-02T00:52:08.551Z,8.07
2022-10-02T00:55:00.212Z,5.67
2022-10-02T00:57:26.961Z,8.73
2022-10-02T01:00:13.724Z,8.67
2022-10-02T01:03:06.835Z,5.63
2022-10-02T01:05:34.164Z,11.03
2022-10-02T01:08:01.733Z,11.27
2022-10-02T01:10:29.608Z,13.13
2022-10-02T01:12:57.935Z,9.20
2022-10-02T01:15:36.486Z,13.67
2022-10-02T01:18:04.560Z,13.03
2022-10-02T01:20:38.077Z,9.63
2022-10-02T01:23:25.269Z,8.50
2022-10-02T01:25:52.084Z,10.67
2022-10-02T01:28:19.221Z,11.57
2022-10-02T01:30:50.008Z,14.37
2022-10-02T01:33:17.086Z,11.03
2022-10-02T01:35:44.394Z,13.27
2022-10-02T01:38:17.162Z,12.87
2022-10-02T01:40:44.451Z,13.93
2022-10-02T01:43:19.181Z,11.20
2022-10-02T01:45:49.048Z,14.77
2022-10-02T01:48:53.605Z,13.70
2022-10-02T01:51:54.957Z,10.87
2022-10-02T01:54:45.242Z,11.53
2022-10-02T01:57:27.733Z,12.77
2022-10-02T02:00:08.716Z,16.13
2022-10-02T02:03:02.720Z,13.87
2022-10-02T02:05:44.997Z,11.97
2022-10-02T02:08:36.055Z,18.27
2022-10-02T02:11:19.245Z,11.03
2022-10-02T02:14:17.514Z,15.87
2022-10-02T02:16:52.534Z,15.47
2022-10-02T02:19:28.350Z,10.57
2022-10-02T02:22:03.948Z,13.70
2022-10-02T02:24:53.532Z,11.23
2022-10-02T02:27:24.777Z,11.33
2022-10-02T02:29:56.354Z,16.63
2022-10-02T02:32:27.133Z,12.13
2022-10-02T02:35:07.523Z,9.23
2022-10-02T02:37:36.946Z,13.57
2022-10-02T02:40:09.234Z,12.83
2022-10-02T02:42:46.305Z,12.20
2022-10-02T02:45:18.839Z,15.30
2022-10-02T02:47:50.620Z,18.33
2022-10-02T02:50:31.181Z,16.63
2022-10-02T02:53:03.662Z,15.73
2022-10-02T02:55:42.790Z,10.73
2022-10-02T02:58:35.601Z,9.27
2022-10-02T03:01:02.516Z,15.87
2022-10-02T03:03:29.422Z,13.30
2022-10-02T03:06:07.852Z,6.37
2022-10-02T03:08:37.487Z,10.87
2022-10-02T03:11:13.933Z,10.70
2022-10-02T03:14:05.512Z,11.40
2022-10-02T03:17:15.690Z,12.80
2022-10-02T03:20:07.030Z,13.60
2022-10-02T03:22:55.417Z,16.43
2022-10-02T03:25:37.632Z,11.63
2022-10-02T03:28:14.251Z,12.30
2022-10-02T03:30:42.326Z,11.83
2022-10-02T03:33:12.408Z,11.67
2022-10-02T03:35:40.344Z,8.60
2022-10-02T03:38:11.829Z,10.47
2022-10-02T03:40:38.690Z,12.77
2022-10-02T03:43:05.412Z,13.53
2022-10-02T03:45:50.487Z,10.70
2022-10-02T03:48:18.446Z,14.60
2022-10-02T03:50:45.807Z,11.67
2022-10-02T03:53:17.781Z,13.43
2022-10-02T03:55:58.983Z,12.17
2022-10-02T03:58:25.884Z,19.77
2022-10-02T04:01:04.451Z,10.40
2022-10-02T04:03:35.699Z,7.27
2022-10-02T04:06:04.867Z,17.60
2022-10-02T04:08:35.986Z,9.37
2022-10-02T04:11:23.812Z,10.27
2022-10-02T04:14:12.482Z,10.63
2022-10-02T04:17:02.183Z,10.13
2022-10-02T04:19:43.497Z,13.23
2022-10-02T04:22:40.988Z,13.73
2022-10-02T04:25:16.239Z,11.07
2022-10-02T04:27:56.880Z,14.83
2022-10-02T04:30:23.993Z,22.00
2022-10-02T04:32:50.882Z,7.20
2022-10-02T04:35:55.101Z,11.53
2022-10-02T04:38:42.856Z,10.47
2022-10-02T04:41:40.466Z,12.07
2022-10-02T04:44:13.490Z,11.07
2022-10-02T04:47:14.549Z,11.70
2022-10-02T04:50:01.128Z,11.57
2022-10-02T04:52:51.789Z,12.27
2022-10-02T04:55:24.381Z,7.77
2022-10-02T04:58:01.408Z,10.90
2022-10-02T05:00:36.423Z,13.93
2022-10-02T05:03:29.323Z,16.27
2022-10-02T05:06:23.794Z,11.33
2022-10-02T05:09:01.367Z,9.77
2022-10-02T05:11:57.513Z,10.17
2022-10-02T05:14:42.117Z,11.73
2022-10-02T05:17:36.944Z,10.93
2022-10-02T05:20:09.930Z,10.07
2022-10-02T05:22:51.768Z,12.43
2022-10-02T05:25:31.536Z,12.53
2022-10-02T05:28:04.573Z,9.57
2022-10-02T05:30:55.063Z,12.27
2022-10-02T05:33:58.645Z,9.97
2022-10-02T05:36:51.446Z,8.60
2022-10-02T05:39:32.984Z,12.43
2022-10-02T05:42:37.415Z,11.27
2022-10-02T05:45:22.346Z,9.47
2022-10-02T05:47:50.755Z,7.53
2022-10-02T05:50:26.301Z,8.40
2022-10-02T05:53:10.673Z,7.93
2022-10-02T05:56:16.137Z,7.80
2022-10-02T05:58:51.572Z,11.07
2022-10-02T06:01:22.310Z,6.07
2022-10-02T06:03:55.620Z,7.07
2022-10-02T06:06:30.723Z,8.50
2022-10-02T06:09:19.840Z,6.37
2022-10-02T06:11:49.962Z,8.83
2022-10-02T06:14:33.432Z,6.70
2022-10-02T06:17:14.316Z,5.77
2022-10-02T06:19:49.475Z,4.40
2022-10-02T06:22:24.639Z,7.63
2022-10-02T06:25:02.528Z,5.53
2022-10-02T06:27:47.634Z,4.63
2022-10-02T06:30:19.053Z,5.20
2022-10-02T06:32:58.426Z,6.07
2022-10-02T06:35:47.950Z,4.30
2022-10-02T06:38:23.297Z,5.47
2022-10-02T06:40:59.980Z,2.77
2022-10-02T06:43:58.264Z,4.07
2022-10-02T06:46:51.508Z,4.80
2022-10-02T06:49:30.873Z,5.57
2022-10-02T06:52:20.707Z,5.17
2022-10-02T06:55:12.895Z,2.07
2022-10-02T06:57:48.443Z,2.20
2022-10-02T07:00:19.449Z,2.70
2022-10-02T07:03:23.900Z,3.23
2022-10-02T07:06:15.840Z,2.30
2022-10-02T07:09:17.269Z,1.53
2022-10-02T07:12:26.467Z,3.07
2022-10-02T07:15:07.898Z,2.00
2022-10-02T07:18:07.816Z,2.60
2022-10-02T07:20:55.041Z,2.67
2022-10-02T07:23:42.234Z,2.50
2022-10-02T07:26:40.312Z,4.27
2022-10-02T07:29:24.907Z,1.60
2022-10-02T07:31:57.572Z,2.77
2022-10-02T07:35:03.522Z,2.50
2022-10-02T07:37:46.995Z,2.87
2022-10-02T07:40:28.969Z,3.70
2022-10-02T07:43:33.285Z,1.90
2022-10-02T07:46:09.834Z,3.40
2022-10-02T07:48:47.885Z,3.20
2022-10-02T07:51:50.179Z,2.33
2022-10-02T07:54:28.793Z,1.97
2022-10-02T07:57:04.148Z,0.97
2022-10-02T07:59:34.028Z,2.13
2022-10-02T08:02:06.483Z,1.90
2022-10-02T08:04:37.301Z,4.40
2022-10-02T08:07:06.362Z,1.30
2022-10-02T08:09:38.685Z,1.27
2022-10-02T08:12:20.420Z,2.33
2022-10-02T08:14:51.887Z,1.40
2022-10-02T08:17:39.604Z,1.00
2022-10-02T08:20:36.582Z,1.20
2022-10-02T08:23:06.758Z,1.20
2022-10-02T08:25:48.075Z,1.97
2022-10-02T08:28:41.950Z,0.93
2022-10-02T08:31:11.273Z,1.03
2022-10-02T08:33:38.955Z,1.83
2022-10-02T08:36:28.388Z,1.03
2022-10-02T08:39:29.193Z,3.93
2022-10-02T08:42:13.644Z,0.87
2022-10-02T08:45:07.909Z,1.00
2022-10-02T08:47:50.970Z,15.40
2022-10-02T08:50:39.355Z,1.67
2022-10-02T08:53:06.044Z,1.37
2022-10-02T08:56:03.096Z,0.90
2022-10-02T08:58:43.851Z,1.10
2022-10-02T09:01:38.890Z,1.13
2022-10-02T09:04:20.516Z,0.83
2022-10-02T09:07:11.938Z,0.83
2022-10-02T09:10:13.968Z,0.70
2022-10-02T09:13:07.935Z,0.77
2022-10-02T09:15:45.020Z,1.47
2022-10-02T09:18:43.705Z,1.10
2022-10-02T09:21:21.708Z,0.90
2022-10-02T09:24:06.750Z,0.63
2022-10-02T09:26:44.998Z,0.80
2022-10-02T09:29:29.201Z,0.97
2022-10-02T09:32:24.247Z,0.77
2022-10-02T09:35:16.560Z,0.97
2022-10-02T09:37:55.348Z,1.80
2022-10-02T09:40:40.706Z,1.50
2022-10-02T09:43:38.036Z,1.00
2022-10-02T09:46:22.740Z,1.30
2022-10-02T09:48:59.256Z,1.00
2022-10-02T09:51:26.180Z,1.40
2022-10-02T09:54:31.374Z,2.67
2022-10-02T09:57:17.630Z,1.83
2022-10-02T09:59:58.183Z,1.53
2022-10-02T10:02:35.794Z,2.37
2022-10-02T10:05:39.272Z,2.17
2022-10-02T10:08:33.074Z,1.70
2022-10-02T10:11:02.778Z,1.27
2022-10-02T10:13:55.907Z,1.27
2022-10-02T10:16:43.172Z,2.53
2022-10-02T10:19:29.043Z,3.67
2022-10-02T10:22:26.625Z,3.67
2022-10-02T10:25:12.317Z,3.50
2022-10-02T10:27:53.709Z,3.60
2022-10-02T10:30:44.387Z,3.90
2022-10-02T10:33:16.878Z,4.80
2022-10-02T10:35:47.290Z,9.63
2022-10-02T10:38:52.071Z,5.47
2022-10-02T10:41:57.847Z,12.87
2022-10-02T10:44:47.773Z,11.80
2022-10-02T10:47:35.677Z,6.17
2022-10-02T10:50:28.340Z,5.73
2022-10-02T10:53:22.379Z,4.40
2022-10-02T10:56:13.002Z,2.13
2022-10-02T10:59:01.308Z,3.40
2022-10-02T11:02:00.526Z,3.10
2022-10-02T11:04:49.239Z,2.57
2022-10-02T11:07:16.254Z,2.50
2022-10-02T11:10:28.689Z,1.27
2022-10-02T11:13:05.581Z,1.17
2022-10-02T11:15:59.157Z,0.80
2022-10-02T11:18:40.514Z,2.00
2022-10-02T11:21:41.214Z,1.20
2022-10-02T11:24:31.474Z,1.20
2022-10-02T11:27:29.514Z,0.90
2022-10-02T11:30:25.303Z,1.67
2022-10-02T11:33:03.862Z,1.07
2022-10-02T11:35:48.198Z,0.87
2022-10-02T11:38:32.446Z,1.93
2022-10-02T11:41:27.043Z,1.60
2022-10-02T11:44:16.806Z,1.00
2022-10-02T11:46:52.406Z,1.20
2022-10-02T11:49:40.119Z,0.83
2022-10-02T11:52:34.151Z,1.10
2022-10-02T11:55:28.477Z,2.30
2022-10-02T11:58:38.808Z,2.20
2022-10-02T12:01:14.535Z,1.70
2022-10-02T12:03:53.157Z,1.47
2022-10-02T12:07:00.349Z,1.83
2022-10-02T12:09:36.136Z,1.30
2022-10-02T12:12:27.999Z,1.07
2022-10-02T12:15:03.358Z,1.07
2022-10-02T12:17:33.123Z,1.33
2022-10-02T12:20:33.362Z,1.10
2022-10-02T12:24:10.722Z,4.23
2022-10-02T12:27:09.467Z,3.30
2022-10-02T12:29:48.394Z,3.23
2022-10-02T12:32:59.692Z,1.80
2022-10-02T12:35:32.982Z,0.77
2022-10-02T12:38:21.620Z,1.10
2022-10-02T12:41:24.085Z,2.60
2022-10-02T12:44:34.556Z,1.73
2022-10-02T12:47:12.595Z,1.03
2022-10-02T12:50:17.227Z,2.23
2022-10-02T12:53:03.182Z,4.70
2022-10-02T12:55:54.887Z,3.03
2022-10-02T12:58:26.640Z,1.10
2022-10-02T13:01:13.694Z,1.53
2022-10-02T13:03:49.341Z,2.00
2022-10-02T13:06:40.518Z,1.50
2022-10-02T13:09:29.872Z,1.50
2022-10-02T13:12:15.279Z,2.33
2022-10-02T13:15:01.992Z,2.60
2022-10-02T13:17:52.003Z,1.40
2022-10-02T13:20:37.900Z,2.13
2022-10-02T13:23:13.848Z,1.63
2022-10-02T13:26:05.023Z,2.27
2022-10-02T13:28:48.050Z,2.17
2022-10-02T13:31:42.391Z,2.20
2022-10-02T13:34:46.908Z,3.10
2022-10-02T13:37:17.171Z,1.07
2022-10-02T13:40:15.875Z,0.73
2022-10-02T13:42:50.922Z,1.70
2022-10-02T13:45:35.585Z,4.13
2022-10-02T13:48:19.289Z,3.17
2022-10-02T13:51:12.263Z,0.87
2022-10-02T13:53:56.712Z,2.97
2022-10-02T13:56:50.876Z,1.70
2022-10-02T13:59:55.188Z,2.00
2022-10-02T14:02:39.554Z,4.83
2022-10-02T14:05:31.197Z,1.40
2022-10-02T14:08:05.428Z,1.20
2022-10-02T14:10:42.010Z,2.07
2022-10-02T14:13:23.758Z,1.97
2022-10-02T14:16:03.944Z,1.07
2022-10-02T14:18:39.627Z,0.80
2022-10-02T14:21:20.683Z,1.00
2022-10-02T14:23:59.283Z,1.30
2022-10-02T14:26:52.714Z,0.70
2022-10-02T14:29:35.538Z,0.90
2022-10-02T14:32:24.789Z,1.13
2022-10-02T14:35:14.578Z,3.17
2022-10-02T14:37:55.273Z,3.00
2022-10-02T14:40:31.161Z,3.07
2022-10-02T14:43:09.320Z,3.20
2022-10-02T14:46:03.010Z,2.67
2022-10-02T14:48:58.190Z,3.73
2022-10-02T14:51:46.533Z,3.00
2022-10-02T14:54:44.008Z,2.47
2022-10-02T14:57:26.439Z,1.70
2022-10-02T15:00:22.010Z,3.83
2022-10-02T15:02:51.445Z,3.10
2022-10-02T15:05:39.463Z,2.23
2022-10-02T15:08:20.857Z,3.77
2022-10-02T15:10:49.449Z,2.57
2022-10-02T15:13:31.285Z,2.43
2022-10-02T15:16:29.872Z,2.33
2022-10-02T15:19:16.822Z,2.40
2022-10-02T15:22:03.624Z,3.77
2022-10-02T15:24:57.824Z,2.03
2022-10-02T15:27:26.491Z,3.10
2022-10-02T15:30:11.986Z,2.27
2022-10-02T15:32:44.879Z,3.10
2022-10-02T15:35:29.245Z,2.13
2022-10-02T15:38:39.744Z,5.97
2022-10-02T15:41:12.565Z,2.77
2022-10-02T15:43:57.961Z,2.30
2022-10-02T15:46:52.123Z,1.77
2022-10-02T15:49:36.717Z,2.67
2022-10-02T15:52:43.076Z,1.57
2022-10-02T15:55:46.840Z,2.07
2022-10-02T15:58:47.434Z,2.70
2022-10-02T16:01:26.580Z,5.77
2022-10-02T16:04:02.056Z,4.80
2022-10-02T16:07:11.941Z,3.40
2022-10-02T16:09:38.615Z,3.20
2022-10-02T16:12:25.160Z,3.20
2022-10-02T16:15:10.749Z,6.17
2022-10-02T16:17:56.132Z,7.23
2022-10-02T16:20:47.569Z,6.70
2022-10-02T16:23:32.488Z,9.73
2022-10-02T16:26:02.407Z,9.23
2022-10-02T16:28:34.172Z,6.90
2022-10-02T16:31:30.434Z,5.37
2022-10-02T16:34:15.777Z,4.77
2022-10-02T16:36:52.753Z,4.77
2022-10-02T16:39:33.712Z,6.33
2022-10-02T16:42:13.975Z,4.37
2022-10-02T16:45:02.237Z,4.53
2022-10-02T16:47:50.633Z,5.67
2022-10-02T16:50:29.451Z,4.27
2022-10-02T16:53:11.501Z,5.17
2022-10-02T16:55:47.281Z,5.30
2022-10-02T16:58:29.810Z,5.37
2022-10-02T17:01:04.030Z,5.70
2022-10-02T17:03:48.244Z,6.80
2022-10-02T17:06:46.976Z,7.43
2022-10-02T17:09:44.195Z,5.13
2022-10-02T17:12:30.173Z,5.50
2022-10-02T17:15:05.123Z,5.00
2022-10-02T17:17:43.560Z,4.10
2022-10-02T17:20:22.523Z,5.27
2022-10-02T17:22:59.528Z,5.33
2022-10-02T17:25:52.759Z,6.33
2022-10-02T17:28:27.494Z,4.40
2022-10-02T17:31:04.298Z,5.20
2022-10-02T17:33:51.706Z,4.40
2022-10-02T17:36:35.366Z,6.23
2022-10-02T17:39:17.513Z,5.80
2022-10-02T17:41:49.802Z,6.50
2022-10-02T17:44:24.541Z,6.97
2022-10-02T17:47:03.688Z,7.77
2022-10-02T17:50:20.674Z,8.37
2022-10-02T17:53:11.381Z,7.93
2022-10-02T17:56:25.953Z,7.07
2022-10-02T17:59:07.518Z,8.07
2022-10-02T18:01:48.241Z,7.87
2022-10-02T18:04:30.090Z,9.53
2022-10-02T18:07:15.476Z,8.93
2022-10-02T18:09:45.008Z,8.17
2022-10-02T18:12:27.060Z,8.73
2022-10-02T18:15:04.873Z,7.80
2022-10-02T18:17:53.007Z,11.70
2022-10-02T18:20:34.455Z,8.87
2022-10-02T18:23:36.860Z,6.13
2022-10-02T18:26:29.101Z,6.57
2022-10-02T18:29:12.678Z,5.87
2022-10-02T18:31:56.195Z,7.07
2022-10-02T18:34:53.424Z,6.20
2022-10-02T18:37:44.943Z,6.27
2022-10-02T18:40:22.261Z,6.27
2022-10-02T18:43:11.900Z,7.40
2022-10-02T18:45:56.149Z,8.43
2022-10-02T18:48:50.657Z,11.90
2022-10-02T18:51:31.860Z,13.93
2022-10-02T18:54:40.961Z,11.40
2022-10-02T18:57:07.674Z,12.90
2022-10-02T19:00:09.566Z,12.43
2022-10-02T19:03:01.396Z,10.93
2022-10-02T19:05:39.048Z,10.87
2022-10-02T19:08:10.016Z,8.83
2022-10-02T19:10:36.762Z,11.97
2022-10-02T19:13:24.240Z,8.93
2022-10-02T19:15:53.375Z,7.43
2022-10-02T19:18:26.125Z,20.20
2022-10-02T19:20:53.238Z,11.17
2022-10-02T19:23:28.966Z,13.60
2022-10-02T19:25:58.538Z,19.97
2022-10-02T19:28:29.208Z,15.53
2022-10-02T19:31:11.352Z,11.60
2022-10-02T19:33:44.978Z,15.73
2022-10-02T19:36:20.354Z,13.07
2022-10-02T19:39:13.119Z,9.97
2022-10-02T19:41:43.825Z,11.50
2022-10-02T19:44:31.052Z,10.33
2022-10-02T19:47:01.425Z,17.63
2022-10-02T19:49:32.245Z,7.53
2022-10-02T19:51:59.509Z,14.63
2022-10-02T19:54:37.358Z,7.57
2022-10-02T19:57:14.850Z,9.83
2022-10-02T19:59:52.909Z,7.77
2022-10-02T20:02:47.408Z,13.07
2022-10-02T20:05:24.011Z,58.03
2022-10-02T20:07:54.857Z,17.40
2022-10-02T20:10:47.331Z,7.60
2022-10-02T20:13:22.513Z,6.80
2022-10-02T20:16:10.338Z,8.03
2022-10-02T20:18:38.350Z,10.97
2022-10-02T20:21:18.282Z,7.20
2022-10-02T20:23:49.900Z,5.20
2022-10-02T20:26:22.305Z,8.00
2022-10-02T20:29:02.675Z,3.93
2022-10-02T20:31:59.495Z,6.23
2022-10-02T20:34:53.380Z,5.77
2022-10-02T20:37:26.268Z,3.73
2022-10-02T20:40:07.265Z,3.47
2022-10-02T20:42:49.369Z,8.93
2022-10-02T20:45:16.564Z,5.03
2022-10-02T20:48:12.827Z,6.43
2022-10-02T20:50:54.933Z,4.67
2022-10-02T20:53:35.994Z,7.43
2022-10-02T20:56:25.527Z,17.40
2022-10-02T20:58:55.404Z,11.07
2022-10-02T21:01:32.497Z,5.10
2022-10-02T21:04:37.018Z,6.83
2022-10-02T21:07:10.784Z,4.90
2022-10-02T21:10:02.216Z,13.17
2022-10-02T21:12:44.160Z,7.33
2022-10-02T21:15:36.153Z,6.17
2022-10-02T21:18:41.641Z,10.37
2022-10-02T21:21:23.176Z,10.23
2022-10-02T21:24:14.905Z,7.13
2022-10-02T21:27:10.633Z,24.57
2022-10-02T21:29:48.973Z,22.37
2022-10-02T21:32:32.972Z,14.17
2022-10-02T21:35:34.129Z,14.33
2022-10-02T21:38:38.697Z,5.07
2022-10-02T21:41:29.825Z,15.43
2022-10-02T21:44:18.617Z,43.07
2022-10-02T21:47:12.398Z,11.13
2022-10-02T21:50:15.283Z,55.50
2022-10-02T21:53:11.170Z,15.93
2022-10-02T21:55:59.922Z,51.07
2022-10-02T21:58:29.705Z,19.90
2022-10-02T22:01:08.277Z,6.57
2022-10-02T22:04:08.071Z,6.97
2022-10-02T22:07:03.299Z,14.60
2022-10-02T22:09:48.087Z,18.33
2022-10-02T22:12:29.053Z,30.67
2022-10-02T22:15:20.061Z,20.47
2022-10-02T22:18:01.182Z,20.93
2022-10-02T22:20:31.059Z,6.20
2022-10-02T22:23:16.922Z,5.93
2022-10-02T22:26:06.804Z,19.40
2022-10-02T22:28:48.610Z,15.73
2022-10-02T22:31:35.979Z,13.30
2022-10-02T22:34:39.516Z,31.43
2022-10-02T22:37:27.461Z,9.50
2022-10-02T22:40:13.366Z,9.50
2022-10-02T22:42:46.283Z,29.00
2022-10-02T22:45:21.715Z,11.60
2022-10-02T22:48:09.005Z,17.63
2022-10-02T22:50:58.164Z,12.23
2022-10-02T22:53:45.762Z,6.80
2022-10-02T22:56:38.339Z,7.27
2022-10-02T22:59:24.022Z,6.50
2022-10-02T23:01:59.524Z,7.57
2022-10-02T23:04:44.060Z,8.37
2022-10-02T23:07:21.584Z,10.53
2022-10-02T23:10:07.300Z,17.47
2022-10-02T23:12:43.683Z,12.00
2022-10-02T23:15:25.818Z,21.20
2022-10-02T23:18:03.001Z,27.77
2022-10-02T23:20:45.046Z,40.57
2022-10-02T23:23:32.486Z,14.63
2022-10-02T23:26:19.498Z,13.40
2022-10-02T23:29:20.253Z,10.00
2022-10-02T23:32:03.043Z,10.03
2022-10-02T23:34:51.610Z,14.30
2022-10-02T23:37:25.103Z,13.23
2022-10-02T23:40:13.742Z,11.70
2022-10-02T23:42:47.140Z,11.93
2022-10-02T23:45:34.472Z,22.23
2022-10-02T23:48:12.814Z,17.73
2022-10-02T23:50:42.549Z,10.47
2022-10-02T23:53:27.404Z,10.60
2022-10-02T23:56:12.635Z,9.13
2022-10-02T23:58:48.195Z,10.43
